createdAt,value
2023-10-26T00:01:07.656Z,20.23
2023-10-26T00:03:09.281Z,26.27
2023-10-26T00:05:11.370Z,21.30
2023-10-26T00:07:12.955Z,22.80
2023-10-26T00:09:14.460Z,21.02
2023-10-26T00:11:15.988Z,21.50
2023-10-26T00:13:17.605Z,21.27
2023-10-26T00:15:19.307Z,21.67
2023-10-26T00:17:20.982Z,21.20
2023-10-26T00:19:22.517Z,20.63
2023-10-26T00:21:24.058Z,21.75
2023-10-26T00:23:25.715Z,24.55
2023-10-26T00:25:27.163Z,25.30
2023-10-26T00:27:28.608Z,21.20
2023-10-26T00:29:30.986Z,22.65
2023-10-26T00:31:32.547Z,23.92
2023-10-26T00:33:34.047Z,23.17
2023-10-26T00:35:35.669Z,23.92
2023-10-26T00:37:37.108Z,23.25
2023-10-26T00:39:38.619Z,24.02
2023-10-26T00:41:40.169Z,23.08
2023-10-26T00:43:41.893Z,20.67
2023-10-26T00:45:44.799Z,23.30
2023-10-26T00:47:46.429Z,22.67
2023-10-26T00:49:47.987Z,20.55
2023-10-26T00:51:56.384Z,15.63
2023-10-26T00:53:58.033Z,21.85
2023-10-26T00:55:59.640Z,22.10
2023-10-26T00:58:01.148Z,17.95
2023-10-26T01:00:04.085Z,18.70
2023-10-26T01:02:06.584Z,15.88
2023-10-26T01:04:08.058Z,17.98
2023-10-26T01:06:09.834Z,15.93
2023-10-26T01:08:11.556Z,19.73
2023-10-26T01:10:13.049Z,20.38
2023-10-26T01:12:15.149Z,18.60
2023-10-26T01:14:16.936Z,17.15
2023-10-26T01:16:19.185Z,18.17
2023-10-26T01:18:20.768Z,16.95
2023-10-26T01:20:22.366Z,19.08
2023-10-26T01:22:30.813Z,17.58
2023-10-26T01:24:32.295Z,17.15
2023-10-26T01:26:33.709Z,19.13
2023-10-26T01:28:35.246Z,18.55
2023-10-26T01:30:36.727Z,16.90
2023-10-26T01:32:38.181Z,16.88
2023-10-26T01:34:40.929Z,17.38
2023-10-26T01:36:42.405Z,15.75
2023-10-26T01:38:43.834Z,18.52
2023-10-26T01:40:45.295Z,18.65
2023-10-26T01:42:46.725Z,17.85
2023-10-26T01:44:48.261Z,16.88
2023-10-26T01:46:49.693Z,16.02
2023-10-26T01:48:51.267Z,18.42
2023-10-26T01:50:52.841Z,16.40
2023-10-26T01:52:54.893Z,16.30
2023-10-26T01:54:56.293Z,14.88
2023-10-26T01:56:57.749Z,16.13
2023-10-26T01:58:59.308Z,15.57
2023-10-26T02:01:01.998Z,16.02
2023-10-26T02:03:03.537Z,14.35
2023-10-26T02:05:05.733Z,15.73
2023-10-26T02:07:07.248Z,14.57
2023-10-26T02:09:08.840Z,17.42
2023-10-26T02:11:10.361Z,14.15
2023-10-26T02:13:12.693Z,15.50
2023-10-26T02:15:14.159Z,15.25
2023-10-26T02:17:16.558Z,16.65
2023-10-26T02:19:19.548Z,15.77
2023-10-26T02:21:21.267Z,15.45
2023-10-26T02:23:29.039Z,15.73
2023-10-26T02:25:30.488Z,15.75
2023-10-26T02:27:35.652Z,15.38
2023-10-26T02:29:37.210Z,14.88
2023-10-26T02:31:38.628Z,13.75
2023-10-26T02:33:40.129Z,17.10
2023-10-26T02:35:41.764Z,13.45
2023-10-26T02:37:43.574Z,15.95
2023-10-26T02:39:45.057Z,14.65
2023-10-26T02:41:46.573Z,13.52
2023-10-26T02:43:48.015Z,12.38
2023-10-26T02:45:49.602Z,11.65
2023-10-26T02:47:51.238Z,13.40
2023-10-26T02:49:53.140Z,12.07
2023-10-26T02:51:54.626Z,10.95
2023-10-26T02:53:56.097Z,12.02
2023-10-26T02:55:57.530Z,10.80
2023-10-26T02:57:59.587Z,11.55
2023-10-26T03:00:01.040Z,11.35
2023-10-26T03:02:02.523Z,11.23
2023-10-26T03:04:04.609Z,12.23
2023-10-26T03:06:06.301Z,12.25
2023-10-26T03:08:07.803Z,13.02
2023-10-26T03:10:09.507Z,11.80
2023-10-26T03:12:11.077Z,13.13
2023-10-26T03:14:12.601Z,12.88
2023-10-26T03:16:14.100Z,13.48
2023-10-26T03:18:15.982Z,14.07
2023-10-26T03:20:17.677Z,12.25
2023-10-26T03:22:19.168Z,13.93
2023-10-26T03:24:20.838Z,14.55
2023-10-26T03:26:23.056Z,14.77
2023-10-26T03:28:24.515Z,14.40
2023-10-26T03:30:26.032Z,15.73
2023-10-26T03:32:27.509Z,14.80
2023-10-26T03:34:29.052Z,13.95
2023-10-26T03:36:30.555Z,15.65
2023-10-26T03:38:32.346Z,14.15
2023-10-26T03:40:33.794Z,14.73
2023-10-26T03:42:35.560Z,15.77
2023-10-26T03:44:37.255Z,16.23
2023-10-26T03:46:38.732Z,16.25
2023-10-26T03:48:40.190Z,17.02
2023-10-26T03:50:47.776Z,16.30
2023-10-26T03:52:49.208Z,16.50
2023-10-26T03:54:51.094Z,16.00
2023-10-26T03:56:52.701Z,18.27
2023-10-26T03:58:54.282Z,15.23
2023-10-26T04:00:57.866Z,19.38
2023-10-26T04:02:59.462Z,15.82
2023-10-26T04:05:00.943Z,17.25
2023-10-26T04:07:02.484Z,15.73
2023-10-26T04:09:04.374Z,15.60
2023-10-26T04:11:05.941Z,16.02
2023-10-26T04:13:07.417Z,16.98
2023-10-26T04:15:09.249Z,17.05
2023-10-26T04:17:13.110Z,15.45
2023-10-26T04:19:15.209Z,18.83
2023-10-26T04:21:16.783Z,16.50
2023-10-26T04:23:19.250Z,16.48
2023-10-26T04:25:22.641Z,16.92
2023-10-26T04:27:24.233Z,15.60
2023-10-26T04:29:25.723Z,21.08
2023-10-26T04:31:27.303Z,16.90
2023-10-26T04:33:28.762Z,17.58
2023-10-26T04:35:30.703Z,17.40
2023-10-26T04:37:32.160Z,18.27
2023-10-26T04:39:33.617Z,17.83
2023-10-26T04:41:35.257Z,18.27
2023-10-26T04:43:37.032Z,19.52
2023-10-26T04:45:38.706Z,20.35
2023-10-26T04:47:40.361Z,19.08
2023-10-26T04:49:42.579Z,17.08
2023-10-26T04:51:44.209Z,18.25
2023-10-26T04:53:45.659Z,19.70
2023-10-26T04:55:47.076Z,17.48
2023-10-26T04:57:48.509Z,18.17
2023-10-26T04:59:49.962Z,16.75
2023-10-26T05:01:51.518Z,19.20
2023-10-26T05:03:54.518Z,16.50
2023-10-26T05:05:56.106Z,15.38
2023-10-26T05:07:57.718Z,18.48
2023-10-26T05:09:59.214Z,16.90
2023-10-26T05:12:00.668Z,19.33
2023-10-26T05:14:04.285Z,18.52
2023-10-26T05:16:05.933Z,17.52
2023-10-26T05:18:07.490Z,18.55
2023-10-26T05:20:10.413Z,17.75
2023-10-26T05:22:11.890Z,20.17
2023-10-26T05:24:13.395Z,21.48
2023-10-26T05:26:14.831Z,18.00
2023-10-26T05:28:16.767Z,19.55
2023-10-26T05:30:18.667Z,18.98
2023-10-26T05:32:21.626Z,19.75
2023-10-26T05:34:23.482Z,20.30
2023-10-26T05:36:25.115Z,20.65
2023-10-26T05:38:26.621Z,19.95
2023-10-26T05:40:28.080Z,19.25
2023-10-26T05:42:29.565Z,20.92
2023-10-26T05:44:32.706Z,20.48
2023-10-26T05:46:35.169Z,20.42
2023-10-26T05:48:36.725Z,21.80
2023-10-26T05:50:44.319Z,23.20
2023-10-26T05:52:45.787Z,21.50
2023-10-26T05:54:47.831Z,22.63
2023-10-26T05:56:49.286Z,21.63
2023-10-26T05:58:51.575Z,21.33
2023-10-26T06:00:53.628Z,23.95
2023-10-26T06:02:55.153Z,24.65
2023-10-26T06:04:56.568Z,21.33
2023-10-26T06:06:58.024Z,25.15
2023-10-26T06:09:01.018Z,23.13
2023-10-26T06:11:02.453Z,22.35
2023-10-26T06:13:03.925Z,23.63
2023-10-26T06:15:06.010Z,25.05
2023-10-26T06:17:07.568Z,22.08
2023-10-26T06:19:09.238Z,22.42
2023-10-26T06:21:10.724Z,24.38
2023-10-26T06:23:12.341Z,24.45
2023-10-26T06:25:13.869Z,23.92
2023-10-26T06:27:15.329Z,24.13
2023-10-26T06:29:16.787Z,25.52
2023-10-26T06:31:18.336Z,24.35
2023-10-26T06:33:19.881Z,24.90
2023-10-26T06:35:21.518Z,25.17
2023-10-26T06:37:23.014Z,27.05
2023-10-26T06:39:24.551Z,25.77
2023-10-26T06:41:26.106Z,28.17
2023-10-26T06:43:27.984Z,27.98
2023-10-26T06:45:29.477Z,29.60
2023-10-26T06:47:30.875Z,27.42
2023-10-26T06:49:32.333Z,26.25
2023-10-26T06:51:33.832Z,25.73
2023-10-26T06:53:35.294Z,27.73
2023-10-26T06:55:36.786Z,30.45
2023-10-26T06:57:38.238Z,27.45
2023-10-26T06:59:39.665Z,27.92
2023-10-26T07:02:07.399Z,31.48
2023-10-26T07:04:02.738Z,27.08
2023-10-26T07:06:05.547Z,30.30
2023-10-26T07:08:07.125Z,29.13
2023-10-26T07:10:15.690Z,31.23
2023-10-26T07:12:17.171Z,29.40
2023-10-26T07:14:18.624Z,29.67
2023-10-26T07:16:20.101Z,31.33
2023-10-26T07:18:21.612Z,32.35
2023-10-26T07:20:23.109Z,28.83
2023-10-26T07:22:24.637Z,33.83
2023-10-26T07:24:26.092Z,35.83
2023-10-26T07:26:27.556Z,34.35
2023-10-26T07:28:29.289Z,35.47
2023-10-26T07:30:30.807Z,34.25
2023-10-26T07:32:32.328Z,33.97
2023-10-26T07:34:33.869Z,37.10
2023-10-26T07:36:35.520Z,35.88
2023-10-26T07:38:37.709Z,38.50
2023-10-26T07:40:39.613Z,34.97
2023-10-26T07:42:41.086Z,39.80
2023-10-26T07:44:43.022Z,40.97
2023-10-26T07:46:44.586Z,39.40
2023-10-26T07:48:46.109Z,40.05
2023-10-26T07:50:47.567Z,41.45
2023-10-26T07:52:49.206Z,41.22
2023-10-26T07:54:51.848Z,43.42
2023-10-26T07:56:53.274Z,39.42
2023-10-26T07:58:55.881Z,41.25
2023-10-26T08:00:57.514Z,39.60
2023-10-26T08:02:59.788Z,39.58
2023-10-26T08:05:01.500Z,41.90
2023-10-26T08:07:03.046Z,38.95
2023-10-26T08:09:04.663Z,39.70
2023-10-26T08:11:14.095Z,38.28
2023-10-26T08:13:16.694Z,39.70
2023-10-26T08:16:10.072Z,41.03
2023-10-26T08:17:39.948Z,42.20
2023-10-26T08:19:42.276Z,38.97
2023-10-26T08:21:43.701Z,39.53
2023-10-26T08:23:45.140Z,40.10
2023-10-26T08:25:46.979Z,38.97
2023-10-26T08:27:48.478Z,41.92
2023-10-26T08:29:51.248Z,41.60
2023-10-26T08:31:52.794Z,43.42
2023-10-26T08:33:54.286Z,42.85
2023-10-26T08:35:55.850Z,41.30
2023-10-26T08:37:57.365Z,39.72
2023-10-26T08:39:58.842Z,42.20
2023-10-26T08:42:02.728Z,40.72
2023-10-26T08:44:05.019Z,44.92
2023-10-26T08:46:11.739Z,41.95
2023-10-26T08:48:17.806Z,40.97
2023-10-26T08:50:24.724Z,38.53
2023-10-26T08:52:28.028Z,42.60
2023-10-26T08:54:29.634Z,42.55
2023-10-26T08:56:31.075Z,39.75
2023-10-26T08:58:32.535Z,42.35
2023-10-26T09:00:35.787Z,39.00
2023-10-26T09:02:37.470Z,40.75
2023-10-26T09:04:39.143Z,41.97
2023-10-26T09:06:49.926Z,37.63
2023-10-26T09:09:03.356Z,38.85
2023-10-26T09:11:21.380Z,40.25
2023-10-26T09:13:30.610Z,37.45
2023-10-26T09:15:50.041Z,37.28
2023-10-26T09:17:54.170Z,38.03
2023-10-26T09:19:56.144Z,40.50
2023-10-26T09:21:59.036Z,43.08
2023-10-26T09:24:00.500Z,36.03
2023-10-26T09:26:07.930Z,37.97
2023-10-26T09:28:09.453Z,38.42
2023-10-26T09:30:30.800Z,40.60
2023-10-26T09:32:36.807Z,39.25
2023-10-26T09:34:46.922Z,38.03
2023-10-26T09:37:03.753Z,38.72
2023-10-26T09:39:09.871Z,34.75
2023-10-26T09:41:17.513Z,37.30
2023-10-26T09:43:19.149Z,36.72
2023-10-26T09:45:21.248Z,39.15
2023-10-26T09:47:25.594Z,38.45
2023-10-26T09:49:28.182Z,33.58
2023-10-26T09:51:29.802Z,34.40
2023-10-26T09:53:40.250Z,29.38
2023-10-26T09:55:45.106Z,27.95
2023-10-26T09:57:57.603Z,31.40
2023-10-26T10:00:08.262Z,25.33
2023-10-26T10:02:17.273Z,27.55
2023-10-26T10:04:38.620Z,29.77
2023-10-26T10:06:51.445Z,26.95
2023-10-26T10:09:03.134Z,27.70
2023-10-26T10:11:18.538Z,26.63
2023-10-26T10:13:46.572Z,27.08
2023-10-26T10:15:48.062Z,26.10
2023-10-26T10:17:50.357Z,23.23
2023-10-26T10:20:18.354Z,23.42
2023-10-26T10:22:34.827Z,31.40
2023-10-26T10:24:44.063Z,31.52
2023-10-26T10:27:11.363Z,26.48
2023-10-26T10:29:20.351Z,24.15
2023-10-26T10:31:25.096Z,23.67
2023-10-26T10:33:29.435Z,22.30
2023-10-26T10:35:45.112Z,23.00
2023-10-26T10:38:12.199Z,23.38
2023-10-26T10:40:15.627Z,21.17
2023-10-26T10:42:17.678Z,22.80
2023-10-26T10:44:19.892Z,21.88
2023-10-26T10:46:25.004Z,22.17
2023-10-26T10:48:27.068Z,24.75
2023-10-26T10:50:29.027Z,22.45
2023-10-26T10:52:30.539Z,21.67
2023-10-26T10:54:46.776Z,25.83
2023-10-26T10:56:52.512Z,19.00
2023-10-26T10:58:55.608Z,15.95
2023-10-26T11:00:57.110Z,18.48
2023-10-26T11:02:58.626Z,18.65
2023-10-26T11:07:30.084Z,17.52
2023-10-26T11:09:39.173Z,18.95
2023-10-26T11:11:40.633Z,17.25
2023-10-26T11:13:42.548Z,17.75
2023-10-26T11:15:44.004Z,18.05
2023-10-26T11:17:45.982Z,19.58
2023-10-26T11:19:51.176Z,20.27
2023-10-26T11:21:56.626Z,20.13
2023-10-26T11:23:58.315Z,19.40
2023-10-26T11:26:14.383Z,19.25
2023-10-26T11:28:15.905Z,19.95
2023-10-26T11:30:17.342Z,23.05
2023-10-26T11:32:26.560Z,20.35
2023-10-26T11:34:29.058Z,19.52
2023-10-26T11:36:30.606Z,18.70
2023-10-26T11:38:33.038Z,17.35
2023-10-26T11:40:34.564Z,17.52
2023-10-26T11:42:57.111Z,17.77
2023-10-26T11:44:58.660Z,19.75
2023-10-26T11:47:01.303Z,18.80
2023-10-26T11:49:06.543Z,20.33
2023-10-26T11:51:08.734Z,19.80
2023-10-26T11:53:10.203Z,21.10
2023-10-26T11:55:11.936Z,18.63
2023-10-26T11:57:13.411Z,19.48
2023-10-26T11:59:15.908Z,18.23
2023-10-26T12:01:17.365Z,17.73
2023-10-26T12:03:18.892Z,15.05
2023-10-26T12:05:20.842Z,15.45
2023-10-26T12:07:22.440Z,15.45
2023-10-26T12:09:23.868Z,18.27
2023-10-26T12:11:25.624Z,16.80
2023-10-26T12:13:27.050Z,17.58
2023-10-26T12:15:29.297Z,16.40
2023-10-26T12:17:30.979Z,17.38
2023-10-26T12:19:32.748Z,16.17
2023-10-26T12:21:34.184Z,20.17
2023-10-26T12:23:35.655Z,21.42
2023-10-26T12:25:37.256Z,17.73
2023-10-26T12:28:21.600Z,18.42
2023-10-26T12:30:01.403Z,18.48
2023-10-26T12:32:02.924Z,17.50
2023-10-26T12:34:05.454Z,17.48
2023-10-26T12:36:06.998Z,15.65
2023-10-26T12:38:08.580Z,12.48
2023-10-26T12:40:10.265Z,11.38
2023-10-26T12:42:11.741Z,8.52
2023-10-26T12:44:13.641Z,8.45
2023-10-26T12:46:15.111Z,8.63
2023-10-26T12:48:16.637Z,8.25
2023-10-26T12:50:18.396Z,6.70
2023-10-26T12:52:19.857Z,9.32
2023-10-26T12:54:21.326Z,8.23
2023-10-26T12:56:22.753Z,10.00
2023-10-26T12:58:24.308Z,9.32
2023-10-26T13:00:25.843Z,10.32
2023-10-26T13:02:27.323Z,16.65
2023-10-26T13:04:29.072Z,20.85
2023-10-26T13:06:30.719Z,11.98
2023-10-26T13:08:32.132Z,12.77
2023-10-26T13:10:33.643Z,9.18
2023-10-26T13:12:35.161Z,10.18
2023-10-26T13:14:36.644Z,8.95
2023-10-26T13:16:57.184Z,7.75
2023-10-26T13:18:59.841Z,9.20
2023-10-26T13:21:01.270Z,10.98
2023-10-26T13:23:02.835Z,9.25
2023-10-26T13:25:04.875Z,8.48
2023-10-26T13:27:06.392Z,7.80
2023-10-26T13:29:07.839Z,8.18
2023-10-26T13:31:09.409Z,8.15
2023-10-26T13:33:11.033Z,9.10
2023-10-26T13:35:12.840Z,8.27
2023-10-26T13:37:14.416Z,9.20
2023-10-26T13:39:15.898Z,8.25
2023-10-26T13:41:17.379Z,8.38
2023-10-26T13:43:18.812Z,6.75
2023-10-26T13:45:20.456Z,6.28
2023-10-26T13:47:22.788Z,6.07
2023-10-26T13:49:24.322Z,6.32
2023-10-26T13:51:25.881Z,5.72
2023-10-26T13:53:27.421Z,5.70
2023-10-26T13:55:29.131Z,5.07
2023-10-26T13:57:31.042Z,7.72
2023-10-26T13:59:32.726Z,4.97
2023-10-26T14:01:34.310Z,4.28
2023-10-26T14:03:35.864Z,4.82
2023-10-26T14:05:38.559Z,5.50
2023-10-26T14:07:40.197Z,5.63
2023-10-26T14:09:41.653Z,4.40
2023-10-26T14:11:43.318Z,5.00
2023-10-26T14:13:44.750Z,4.65
2023-10-26T14:15:46.179Z,4.43
2023-10-26T14:17:48.213Z,5.93
2023-10-26T14:19:49.696Z,4.85
2023-10-26T14:21:51.283Z,5.20
2023-10-26T14:23:52.807Z,5.88
2023-10-26T14:25:54.219Z,4.55
2023-10-26T14:27:58.033Z,4.35
2023-10-26T14:29:59.597Z,5.20
2023-10-26T14:32:01.125Z,6.43
2023-10-26T14:34:04.617Z,5.38
2023-10-26T14:36:07.243Z,4.53
2023-10-26T14:38:10.371Z,6.43
2023-10-26T14:40:12.139Z,5.43
2023-10-26T14:42:16.187Z,4.65
2023-10-26T14:44:17.680Z,4.22
2023-10-26T14:46:19.161Z,4.80
2023-10-26T14:48:21.114Z,4.75
2023-10-26T14:50:22.642Z,4.53
2023-10-26T14:52:25.282Z,4.63
2023-10-26T14:54:26.784Z,4.25
2023-10-26T14:56:28.279Z,4.22
2023-10-26T14:58:29.940Z,4.22
2023-10-26T15:00:31.457Z,4.50
2023-10-26T15:02:32.960Z,5.60
2023-10-26T15:04:34.429Z,4.72
2023-10-26T15:06:35.911Z,4.22
2023-10-26T15:08:37.436Z,6.28
2023-10-26T15:10:48.042Z,6.18
2023-10-26T15:12:49.594Z,4.90
2023-10-26T15:14:51.736Z,3.58
2023-10-26T15:16:55.636Z,5.15
2023-10-26T15:18:57.510Z,9.43
2023-10-26T15:21:05.272Z,4.25
2023-10-26T15:23:06.750Z,5.00
2023-10-26T15:25:08.335Z,4.88
2023-10-26T15:27:12.151Z,4.97
2023-10-26T15:29:13.605Z,9.93
2023-10-26T15:31:15.145Z,4.25
2023-10-26T15:33:16.641Z,4.10
2023-10-26T15:35:18.046Z,4.93
2023-10-26T15:37:22.254Z,9.23
2023-10-26T15:39:23.707Z,6.10
2023-10-26T15:41:25.131Z,5.68
2023-10-26T15:43:26.784Z,5.53
2023-10-26T15:45:28.332Z,4.68
2023-10-26T15:47:29.858Z,5.15
2023-10-26T15:49:36.711Z,4.68
2023-10-26T15:51:38.312Z,6.20
2023-10-26T15:53:39.738Z,4.88
2023-10-26T15:55:41.643Z,5.57
2023-10-26T15:57:43.097Z,5.05
2023-10-26T15:59:44.619Z,5.53
2023-10-26T16:01:46.130Z,4.70
2023-10-26T16:03:47.743Z,5.40
2023-10-26T16:05:49.229Z,5.13
2023-10-26T16:07:50.624Z,5.75
2023-10-26T16:09:52.470Z,6.07
2023-10-26T16:11:53.908Z,6.53
2023-10-26T16:13:55.358Z,5.40
2023-10-26T16:15:57.479Z,9.50
2023-10-26T16:17:58.995Z,8.57
2023-10-26T16:20:00.519Z,5.95
2023-10-26T16:22:02.061Z,6.40
2023-10-26T16:24:03.713Z,7.07
2023-10-26T16:26:05.143Z,6.40
2023-10-26T16:28:09.218Z,5.90
2023-10-26T16:30:10.967Z,5.75
2023-10-26T16:32:12.446Z,6.60
2023-10-26T16:34:13.947Z,8.20
2023-10-26T16:36:15.437Z,8.88
2023-10-26T16:38:16.874Z,8.05
2023-10-26T16:40:19.452Z,8.50
2023-10-26T16:42:20.880Z,7.55
2023-10-26T16:44:23.489Z,7.95
2023-10-26T16:46:25.102Z,11.02
2023-10-26T16:48:27.560Z,10.63
2023-10-26T16:50:29.317Z,10.02
2023-10-26T16:52:31.602Z,9.98
2023-10-26T16:54:33.022Z,10.23
2023-10-26T16:56:34.526Z,10.65
2023-10-26T16:58:36.202Z,10.27
2023-10-26T17:00:37.773Z,10.38
2023-10-26T17:02:39.293Z,11.10
2023-10-26T17:04:42.266Z,11.85
2023-10-26T17:06:43.933Z,13.15
2023-10-26T17:08:45.414Z,12.25
2023-10-26T17:10:49.265Z,11.77
2023-10-26T17:12:50.798Z,11.65
2023-10-26T17:14:52.224Z,16.42
2023-10-26T17:16:53.746Z,14.02
2023-10-26T17:18:57.179Z,12.18
2023-10-26T17:20:58.754Z,12.32
2023-10-26T17:23:00.272Z,16.48
2023-10-26T17:25:01.893Z,39.95
2023-10-26T17:27:03.738Z,50.08
2023-10-26T17:29:05.202Z,45.03
2023-10-26T17:31:06.874Z,27.70
2023-10-26T17:33:11.731Z,23.42
2023-10-26T17:35:15.018Z,89.45
2023-10-26T17:37:16.477Z,83.35
2023-10-26T17:39:18.114Z,50.35
2023-10-26T17:41:19.586Z,20.23
2023-10-26T17:43:21.051Z,16.52
2023-10-26T17:45:22.699Z,20.77
2023-10-26T17:47:24.428Z,26.15
2023-10-26T17:49:26.009Z,26.08
2023-10-26T17:51:29.990Z,21.92
2023-10-26T17:53:31.465Z,25.92
2023-10-26T17:55:33.028Z,34.42
2023-10-26T17:57:34.517Z,34.38
2023-10-26T17:59:36.011Z,29.40
2023-10-26T18:01:39.374Z,30.05
2023-10-26T18:03:40.882Z,30.38
2023-10-26T18:05:44.093Z,29.85
2023-10-26T18:07:45.534Z,27.90
2023-10-26T18:09:47.711Z,27.27
2023-10-26T18:11:49.327Z,25.25
2023-10-26T18:13:50.802Z,23.73
2023-10-26T18:15:55.965Z,23.15
2023-10-26T18:17:57.519Z,19.15
2023-10-26T18:19:59.041Z,16.92
2023-10-26T18:22:00.510Z,19.23
2023-10-26T18:24:02.107Z,18.08
2023-10-26T18:26:05.862Z,20.77
2023-10-26T18:28:07.328Z,18.70
2023-10-26T18:30:09.300Z,21.00
2023-10-26T18:32:10.888Z,22.90
2023-10-26T18:34:13.865Z,28.48
2023-10-26T18:36:18.342Z,22.23
2023-10-26T18:38:19.770Z,20.85
2023-10-26T18:40:21.347Z,17.70
2023-10-26T18:42:22.876Z,19.38
2023-10-26T18:44:24.313Z,17.65
2023-10-26T18:46:26.043Z,22.08
2023-10-26T18:48:40.814Z,21.98
2023-10-26T18:50:42.412Z,18.05
2023-10-26T18:52:43.960Z,19.52
2023-10-26T18:54:45.493Z,17.45
2023-10-26T18:56:47.360Z,16.42
2023-10-26T18:58:49.314Z,18.55
2023-10-26T19:00:50.954Z,18.58
2023-10-26T19:02:52.475Z,17.20
2023-10-26T19:04:53.918Z,16.35
2023-10-26T19:06:55.422Z,17.42
2023-10-26T19:08:57.020Z,17.70
2023-10-26T19:10:58.535Z,18.67
2023-10-26T19:13:00.151Z,17.17
2023-10-26T19:15:01.673Z,19.38
2023-10-26T19:17:04.562Z,18.73
2023-10-26T19:19:06.298Z,21.23
2023-10-26T19:21:09.505Z,16.80
2023-10-26T19:23:11.288Z,20.65
2023-10-26T19:25:13.423Z,23.70
2023-10-26T19:27:14.881Z,47.85
2023-10-26T19:29:17.093Z,30.58
2023-10-26T19:31:18.747Z,32.47
2023-10-26T19:33:20.401Z,28.75
2023-10-26T19:35:21.830Z,21.55
2023-10-26T19:37:24.237Z,21.83
2023-10-26T19:39:25.780Z,18.50
2023-10-26T19:41:27.257Z,17.55
2023-10-26T19:43:28.689Z,20.50
2023-10-26T19:45:30.319Z,16.95
2023-10-26T19:47:32.098Z,19.65
2023-10-26T19:49:33.567Z,21.00
2023-10-26T19:51:35.070Z,19.08
2023-10-26T19:53:36.629Z,20.05
2023-10-26T19:55:40.738Z,22.13
2023-10-26T19:57:42.422Z,19.95
2023-10-26T19:59:44.566Z,18.35
2023-10-26T20:01:46.531Z,18.17
2023-10-26T20:03:49.236Z,17.55
2023-10-26T20:05:50.744Z,17.85
2023-10-26T20:07:52.274Z,20.38
2023-10-26T20:09:54.898Z,18.35
2023-10-26T20:11:56.760Z,20.70
2023-10-26T20:13:58.734Z,19.58
2023-10-26T20:16:00.254Z,17.50
2023-10-26T20:18:01.829Z,19.83
2023-10-26T20:22:33.957Z,20.90
2023-10-26T20:24:35.472Z,19.55
2023-10-26T20:26:40.580Z,18.13
2023-10-26T20:28:42.028Z,18.33
2023-10-26T20:30:44.231Z,19.85
2023-10-26T20:32:45.838Z,19.75
2023-10-26T20:34:47.301Z,20.40
2023-10-26T20:36:50.345Z,19.60
2023-10-26T20:38:52.543Z,20.23
2023-10-26T20:40:53.985Z,23.35
2023-10-26T20:42:55.446Z,17.90
2023-10-26T20:44:57.699Z,18.98
2023-10-26T20:46:59.236Z,19.42
2023-10-26T20:49:00.794Z,20.25
2023-10-26T20:51:07.488Z,19.75
2023-10-26T20:53:08.915Z,17.90
2023-10-26T20:55:10.558Z,19.13
2023-10-26T20:57:12.568Z,22.13
2023-10-26T20:59:14.020Z,19.48
2023-10-26T21:01:15.501Z,19.27
2023-10-26T21:03:22.855Z,18.42
2023-10-26T21:05:24.267Z,20.23
2023-10-26T21:07:25.746Z,18.23
2023-10-26T21:09:27.977Z,19.75
2023-10-26T21:11:29.488Z,19.90
2023-10-26T21:13:31.747Z,22.98
2023-10-26T21:15:33.255Z,21.55
2023-10-26T21:17:37.381Z,21.10
2023-10-26T21:19:38.877Z,19.13
2023-10-26T21:21:40.319Z,19.33
2023-10-26T21:23:41.799Z,21.45
2023-10-26T21:25:43.514Z,20.58
2023-10-26T21:27:45.050Z,20.05
2023-10-26T21:29:46.497Z,21.02
2023-10-26T21:31:48.223Z,20.17
2023-10-26T21:33:49.963Z,19.27
2023-10-26T21:35:51.418Z,17.42
2023-10-26T21:37:52.891Z,22.40
2023-10-26T21:39:54.345Z,17.20
2023-10-26T21:41:55.927Z,21.20
2023-10-26T21:43:57.373Z,18.73
2023-10-26T21:46:03.068Z,19.23
2023-10-26T21:48:05.065Z,18.70
2023-10-26T21:50:07.471Z,23.50
2023-10-26T21:52:08.985Z,20.45
2023-10-26T21:54:10.490Z,20.40
2023-10-26T21:56:11.957Z,17.75
2023-10-26T21:58:13.427Z,20.70
2023-10-26T22:00:16.468Z,18.85
2023-10-26T22:02:17.965Z,18.77
2023-10-26T22:04:22.554Z,18.90
2023-10-26T22:06:25.060Z,18.10
2023-10-26T22:08:26.551Z,19.48
2023-10-26T22:10:28.136Z,20.05
2023-10-26T22:12:29.562Z,18.92
2023-10-26T22:14:33.310Z,17.77
2023-10-26T22:16:34.796Z,19.73
2023-10-26T22:18:36.392Z,21.13
2023-10-26T22:20:38.137Z,19.92
2023-10-26T22:22:40.085Z,21.30
2023-10-26T22:24:43.841Z,22.33
2023-10-26T22:26:45.238Z,18.98
2023-10-26T22:28:52.584Z,20.20
2023-10-26T22:30:54.248Z,19.58
2023-10-26T22:32:56.097Z,19.50
2023-10-26T22:34:57.613Z,23.40
2023-10-26T22:36:59.352Z,18.70
2023-10-26T22:39:00.900Z,17.75
2023-10-26T22:41:04.704Z,20.17
2023-10-26T22:43:09.356Z,19.38
2023-10-26T22:45:12.053Z,21.08
2023-10-26T22:47:13.540Z,20.17
2023-10-26T22:49:15.074Z,19.13
2023-10-26T22:51:16.616Z,22.10
2023-10-26T22:53:18.404Z,19.67
2023-10-26T22:55:19.937Z,19.40
2023-10-26T22:57:21.434Z,21.58
2023-10-26T22:59:23.019Z,19.17
2023-10-26T23:01:24.582Z,23.20
2023-10-26T23:03:26.027Z,19.48
2023-10-26T23:05:27.564Z,17.77
2023-10-26T23:07:29.070Z,20.92
2023-10-26T23:09:30.552Z,17.85
2023-10-26T23:11:32.362Z,18.70
2023-10-26T23:13:33.928Z,21.45
2023-10-26T23:15:35.524Z,19.50
2023-10-26T23:17:37.053Z,19.15
2023-10-26T23:19:38.568Z,19.80
2023-10-26T23:21:40.092Z,17.33
2023-10-26T23:23:42.281Z,19.42
2023-10-26T23:25:45.319Z,21.40
2023-10-26T23:27:47.006Z,20.90
2023-10-26T23:29:48.481Z,21.88
2023-10-26T23:31:50.153Z,21.45
2023-10-26T23:33:53.215Z,20.80
2023-10-26T23:35:54.697Z,19.52
2023-10-26T23:37:56.102Z,21.55
2023-10-26T23:39:58.964Z,23.08
2023-10-26T23:42:00.461Z,22.15
2023-10-26T23:44:01.911Z,21.08
2023-10-26T23:46:03.498Z,24.65
2023-10-26T23:48:05.102Z,24.45
2023-10-26T23:50:07.348Z,22.40
2023-10-26T23:52:08.840Z,24.23
2023-10-26T23:54:11.199Z,26.60
2023-10-26T23:56:13.984Z,22.77
2023-10-26T23:58:15.749Z,25.42
